Time;durP1;ratioP1;P1;durP2;ratioP2;P2;SDS_P1;SDS_P2;PMS_P1;PMS_P2;Temp;Humidity;BMP_temperature;BMP_pressure;BME280_temperature;BME280_humidity;BME280_pressure;Samples;Min_cycle;Max_cycle;Signal;HPM_P1;HPM_P2
2022/03/29 00:02:13;;;;;;;17.00;6.23;;;;;;;7.91;57.81;99384.47;4190852;28;21106;-60
2022/03/29 00:04:40;;;;;;;15.17;6.53;;;;;;;7.93;57.34;99379.84;4206337;28;20247;-62
2022/03/29 00:07:06;;;;;;;19.37;7.20;;;;;;;7.79;58.42;99386.53;4189439;28;20310;-60
2022/03/29 00:09:34;;;;;;;13.60;6.23;;;;;;;7.82;57.93;99375.63;4187416;28;23364;-61
2022/03/29 00:12:00;;;;;;;14.27;6.30;;;;;;;7.88;58.21;99363.59;4181140;28;20970;-62
2022/03/29 00:14:27;;;;;;;14.20;6.47;;;;;;;7.89;57.99;99375.88;4183718;28;20233;-63
2022/03/29 00:16:54;;;;;;;14.93;6.90;;;;;;;7.78;57.72;99370.81;4176983;28;20237;-61
2022/03/29 00:19:20;;;;;;;18.47;7.33;;;;;;;7.66;58.38;99361.44;4202704;28;20237;-63
2022/03/29 00:21:47;;;;;;;15.30;6.80;;;;;;;7.56;58.79;99359.72;4198878;28;22933;-63
2022/03/29 00:24:13;;;;;;;15.83;6.67;;;;;;;7.50;59.47;99370.06;4198432;28;22213;-62
2022/03/29 00:26:41;;;;;;;18.23;7.07;;;;;;;7.49;59.71;99363.09;4197506;28;20354;-62
2022/03/29 00:29:08;;;;;;;15.17;7.43;;;;;;;7.36;59.96;99347.59;4175492;28;21169;-62
2022/03/29 00:31:35;;;;;;;21.80;8.30;;;;;;;7.39;60.15;99347.28;4180926;28;20666;-63
2022/03/29 00:34:01;;;;;;;17.20;8.17;;;;;;;7.34;60.10;99344.28;4196894;28;20410;-61
2022/03/29 00:36:31;;;;;;;20.47;9.00;;;;;;;7.28;60.31;99339.56;4191977;28;20293;-60
2022/03/29 00:38:57;;;;;;;18.07;8.40;;;;;;;7.26;60.78;99341.53;4180452;28;25561;-62
2022/03/29 00:41:24;;;;;;;20.70;8.90;;;;;;;7.12;61.41;99341.09;4191669;28;20252;-62
2022/03/29 00:43:50;;;;;;;23.73;9.03;;;;;;;6.94;61.71;99337.59;4205118;28;20283;-61
2022/03/29 00:46:17;;;;;;;17.97;9.07;;;;;;;7.03;61.65;99325.28;4188195;28;20229;-61
2022/03/29 00:48:44;;;;;;;22.47;9.43;;;;;;;6.97;62.06;99319.59;4188201;28;20271;-62
2022/03/29 00:51:11;;;;;;;20.83;9.47;;;;;;;7.00;62.41;99326.41;4192869;28;20240;-62
2022/03/29 00:53:38;;;;;;;16.63;8.43;;;;;;;6.94;62.14;99332.28;4182344;28;20426;-62
2022/03/29 00:56:04;;;;;;;18.30;8.60;;;;;;;6.93;62.31;99315.59;4191701;28;20225;-60
2022/03/29 00:58:34;;;;;;;18.27;8.80;;;;;;;6.87;62.86;99320.66;4197249;28;21122;-62
2022/03/29 01:01:04;;;;;;;19.33;9.20;;;;;;;6.87;63.32;99320.66;4194276;28;20233;-60
2022/03/29 01:03:31;;;;;;;22.00;10.20;;;;;;;6.77;63.54;99315.44;4185540;28;22855;-62
2022/03/29 01:05:57;;;;;;;20.63;9.20;;;;;;;6.78;63.88;99313.59;4179320;28;20287;-62
2022/03/29 01:08:27;;;;;;;19.10;8.57;;;;;;;6.80;63.26;99314.28;4187429;28;20300;-63
2022/03/29 01:10:56;;;;;;;18.73;9.17;;;;;;;6.77;64.20;99315.44;4190937;28;20382;-62
2022/03/29 01:13:23;;;;;;;19.30;8.73;;;;;;;6.84;63.88;99310.38;4184744;28;20721;-61
2022/03/29 01:15:50;;;;;;;18.43;7.90;;;;;;;6.80;63.72;99309.00;4207312;28;22754;-62
2022/03/29 01:18:18;;;;;;;15.93;8.03;;;;;;;6.79;63.20;99320.53;4190645;28;20245;-63
2022/03/29 01:20:48;;;;;;;21.00;8.90;;;;;;;6.65;64.46;99312.16;4190528;28;20232;-64
2022/03/29 01:23:15;;;;;;;18.03;7.50;;;;;;;6.43;65.85;99309.88;4182123;28;23936;-63
2022/03/29 01:25:42;;;;;;;18.57;7.97;;;;;;;6.55;65.30;99306.06;4188736;28;21516;-63
2022/03/29 01:28:10;;;;;;;18.83;7.53;;;;;;;6.65;64.90;99312.16;4195482;28;22762;-64
2022/03/29 01:30:36;;;;;;;15.83;8.40;;;;;;;6.60;64.53;99303.81;4203677;28;20242;-63
2022/03/29 01:33:06;;;;;;;17.83;8.07;;;;;;;6.66;65.04;99303.22;4189564;28;20318;-64
2022/03/29 01:35:33;;;;;;;16.33;8.43;;;;;;;6.53;65.17;99308.03;4183202;28;20241;-62
2022/03/29 01:37:59;;;;;;;16.20;7.97;;;;;;;6.54;65.02;99301.78;4199482;28;20298;-62
2022/03/29 01:40:26;;;;;;;18.20;8.70;;;;;;;6.21;67.04;99300.53;4202700;28;20299;-62
2022/03/29 01:42:58;;;;;;;19.60;8.57;;;;;;;6.20;66.96;99302.31;4190298;28;22142;-63
2022/03/29 01:45:27;;;;;;;16.07;7.67;;;;;;;6.37;66.12;99297.25;4202227;28;20240;-64
2022/03/29 01:47:54;;;;;;;17.77;8.30;;;;;;;6.20;66.63;99289.13;4190842;28;20239;-64
2022/03/29 01:50:21;;;;;;;18.67;8.63;;;;;;;6.32;67.15;99295.91;4192048;28;21304;-62
2022/03/29 01:52:48;;;;;;;17.63;7.63;;;;;;;6.37;66.70;99279.63;4189451;28;20305;-63
2022/03/29 01:55:16;;;;;;;25.60;8.50;;;;;;;6.40;66.45;99281.94;4189644;28;20240;-62
2022/03/29 01:57:43;;;;;;;28.17;8.97;;;;;;;6.40;66.32;99275.84;4195897;28;20245;-63
2022/03/29 02:00:30;;;;;;;21.67;8.17;;;;;;;6.39;66.67;99279.44;4200058;28;20367;-64
2022/03/29 02:02:58;;;;;;;24.07;8.60;;;;;;;6.24;66.80;99287.84;4179580;28;20340;-64
2022/03/29 02:05:25;;;;;;;21.73;8.63;;;;;;;6.23;67.35;99283.56;4186479;28;20467;-63
2022/03/29 02:07:52;;;;;;;18.23;8.07;;;;;;;6.12;67.43;99278.47;4183611;28;20288;-63
2022/03/29 02:10:21;;;;;;;14.67;7.47;;;;;;;6.17;67.15;99275.38;4202693;28;20430;-63
2022/03/29 02:12:49;;;;;;;19.97;8.47;;;;;;;6.16;67.92;99271.91;4168793;28;20237;-63
2022/03/29 02:15:16;;;;;;;22.93;8.37;;;;;;;6.01;68.32;99273.34;4196810;28;20244;-62
2022/03/29 02:17:43;;;;;;;20.97;8.90;;;;;;;5.96;68.75;99279.06;4202427;28;20247;-63
2022/03/29 02:20:13;;;;;;;18.87;8.07;;;;;;;5.93;68.72;99280.16;4190922;28;21889;-65
2022/03/29 02:22:40;;;;;;;18.10;8.33;;;;;;;5.81;69.75;99260.19;4198166;28;21329;-63
2022/03/29 02:25:07;;;;;;;25.30;10.67;;;;;;;5.75;69.76;99260.75;4168533;28;21668;-64
2022/03/29 02:27:33;;;;;;;35.17;13.90;;;;;;;5.83;69.32;99266.16;4199517;28;20228;-63
2022/03/29 02:30:00;;;;;;;34.70;14.23;;;;;;;6.01;69.12;99270.72;4193622;28;20243;-62
2022/03/29 02:32:26;;;;;;;23.30;9.30;;;;;;;5.88;69.47;99256.00;4186447;28;20633;-62
2022/03/29 02:34:56;;;;;;;26.00;9.73;;;;;;;5.76;69.62;99257.16;4188699;28;20514;-62
2022/03/29 02:37:22;;;;;;;16.90;8.03;;;;;;;5.72;70.66;99258.41;4191212;28;20237;-65
2022/03/29 02:39:49;;;;;;;18.97;8.50;;;;;;;5.85;70.37;99261.56;4204566;28;20244;-62
2022/03/29 02:42:15;;;;;;;19.43;8.70;;;;;;;5.73;70.87;99262.69;4190844;28;20284;-63
2022/03/29 02:44:42;;;;;;;23.30;8.57;;;;;;;5.78;70.56;99268.38;4195726;28;20236;-65
2022/03/29 02:47:09;;;;;;;19.70;8.80;;;;;;;5.70;71.31;99274.38;4196275;28;21209;-62
2022/03/29 02:49:36;;;;;;;22.77;8.77;;;;;;;5.62;71.22;99270.78;4183508;28;20748;-62
2022/03/29 02:52:03;;;;;;;19.07;9.00;;;;;;;5.43;72.01;99269.84;4191340;28;20239;-63
2022/03/29 02:54:30;;;;;;;18.60;8.90;;;;;;;5.41;72.56;99258.59;4188306;28;20252;-63
2022/03/29 02:56:56;;;;;;;24.17;10.00;;;;;;;5.28;73.50;99268.59;4206250;28;20232;-66
2022/03/29 02:59:23;;;;;;;19.93;9.30;;;;;;;5.30;73.60;99266.66;4198667;28;20224;-63
2022/03/29 03:01:50;;;;;;;23.80;10.60;;;;;;;5.28;74.42;99268.59;4187862;28;20735;-63
2022/03/29 03:04:17;;;;;;;20.77;9.40;;;;;;;5.28;74.80;99265.97;4188730;28;20974;-63
2022/03/29 03:06:43;;;;;;;18.50;9.20;;;;;;;5.47;74.08;99270.38;4187770;28;20295;-62
2022/03/29 03:09:10;;;;;;;21.03;9.53;;;;;;;5.50;73.49;99265.69;4189634;28;24462;-62
2022/03/29 03:11:36;;;;;;;21.43;9.63;;;;;;;5.41;73.69;99258.59;4190900;28;20287;-64
2022/03/29 03:14:03;;;;;;;19.20;9.50;;;;;;;5.52;73.71;99264.69;4189345;28;20702;-62
2022/03/29 03:16:30;;;;;;;20.83;9.63;;;;;;;5.69;73.49;99258.69;4174970;28;20314;-62
2022/03/29 03:18:56;;;;;;;24.87;10.10;;;;;;;5.72;73.15;99261.03;4196253;28;22507;-65
2022/03/29 03:21:23;;;;;;;22.57;9.93;;;;;;;5.70;73.11;99252.44;4189903;28;20232;-65
2022/03/29 03:23:50;;;;;;;23.60;10.03;;;;;;;5.55;73.83;99245.94;4193211;28;20245;-62
2022/03/29 03:26:16;;;;;;;17.53;9.27;;;;;;;5.53;74.00;99250.53;4187666;28;20291;-62
2022/03/29 03:28:43;;;;;;;22.87;10.20;;;;;;;5.47;74.43;99258.03;4192065;28;21395;-64
2022/03/29 03:31:10;;;;;;;23.27;10.37;;;;;;;5.33;75.84;99249.72;4168092;28;20240;-62
2022/03/29 03:33:36;;;;;;;22.70;11.43;;;;;;;5.10;77.21;99250.00;4189519;28;21898;-64
2022/03/29 03:36:04;;;;;;;25.47;10.50;;;;;;;5.05;77.23;99255.69;4173420;28;20446;-64
2022/03/29 03:38:30;;;;;;;22.60;10.17;;;;;;;5.14;77.59;99255.84;4195241;28;20240;-62
2022/03/29 03:40:57;;;;;;;23.67;10.97;;;;;;;5.10;77.98;99267.63;4191960;28;25112;-65
2022/03/29 03:43:24;;;;;;;21.23;10.83;;;;;;;5.01;77.92;99275.41;4203750;28;20243;-63
2022/03/29 03:45:50;;;;;;;22.13;10.80;;;;;;;5.16;77.94;99280.28;4190710;28;20226;-65
2022/03/29 03:48:17;;;;;;;25.67;10.67;;;;;;;5.17;77.59;99281.94;4185711;28;20244;-63
2022/03/29 03:50:43;;;;;;;23.90;10.43;;;;;;;5.06;77.93;99278.47;4192574;28;20299;-65
2022/03/29 03:53:11;;;;;;;28.03;11.70;;;;;;;4.97;78.16;99270.56;4186470;28;22095;-62
2022/03/29 03:55:38;;;;;;;21.23;11.17;;;;;;;5.03;78.63;99270.00;4194674;28;20228;-63
2022/03/29 03:58:05;;;;;;;28.67;12.63;;;;;;;4.82;79.29;99273.59;4188861;28;20306;-63
2022/03/29 04:00:31;;;;;;;27.77;12.53;;;;;;;4.91;78.93;99277.19;4188986;28;21688;-65
2022/03/29 04:02:59;;;;;;;26.07;11.73;;;;;;;4.97;78.77;99281.09;4192022;28;24340;-64
2022/03/29 04:05:27;;;;;;;24.60;11.73;;;;;;;5.03;78.76;99291.09;4196794;28;20229;-61
2022/03/29 04:07:56;;;;;;;23.43;11.03;;;;;;;5.01;78.57;99288.59;4191348;28;20229;-62
2022/03/29 04:10:23;;;;;;;21.00;11.17;;;;;;;5.08;78.92;99279.16;4191201;28;21826;-63
2022/03/29 04:12:49;;;;;;;28.03;12.40;;;;;;;5.07;79.08;99272.22;4186913;28;20310;-62
2022/03/29 04:15:16;;;;;;;25.53;11.67;;;;;;;4.88;79.40;99272.22;4191703;28;20243;-63
2022/03/29 04:17:42;;;;;;;25.57;11.90;;;;;;;4.93;79.81;99280.53;4197338;28;20311;-63
2022/03/29 04:20:09;;;;;;;29.93;11.37;;;;;;;5.05;79.14;99303.16;4195287;28;20630;-63
2022/03/29 04:22:36;;;;;;;26.90;12.37;;;;;;;5.17;78.31;99297.75;4208182;28;20243;-61
2022/03/29 04:25:04;;;;;;;23.90;11.97;;;;;;;5.20;79.09;99279.88;4197847;28;20315;-63
2022/03/29 04:27:30;;;;;;;27.50;12.57;;;;;;;4.98;80.20;99267.78;4190010;28;20325;-64
2022/03/29 04:29:57;;;;;;;29.03;12.50;;;;;;;4.76;83.68;99268.03;4194160;28;22072;-63
2022/03/29 04:32:23;;;;;;;29.80;14.13;;;;;;;4.80;85.03;99254.47;4167319;28;20460;-64
2022/03/29 04:34:50;;;;;;;28.43;13.73;;;;;;;4.79;86.07;99246.69;4198961;28;20660;-66
2022/03/29 04:37:16;;;;;;;27.13;14.10;;;;;;;4.84;85.90;99247.09;4204553;28;26580;-63
2022/03/29 04:39:43;;;;;;;27.47;14.50;;;;;;;4.88;86.30;99255.56;4209497;28;20321;-64
2022/03/29 04:42:09;;;;;;;28.23;13.17;;;;;;;5.02;85.57;99252.53;4210742;28;20292;-63
2022/03/29 04:44:36;;;;;;;28.10;13.87;;;;;;;5.08;86.38;99260.72;4205598;28;20233;-61
2022/03/29 04:47:04;;;;;;;36.10;15.47;;;;;;;5.01;86.54;99278.06;4205670;28;20679;-62
2022/03/29 04:49:31;;;;;;;27.20;14.00;;;;;;;4.96;86.88;99284.69;4244766;28;21164;-64
2022/03/29 04:51:59;;;;;;;27.40;13.37;;;;;;;4.83;87.56;99283.16;4191736;28;21488;-63
2022/03/29 04:54:26;;;;;;;30.20;14.70;;;;;;;4.59;89.33;99283.53;4235059;28;21079;-66
2022/03/29 04:56:53;;;;;;;27.97;14.70;;;;;;;4.54;90.43;99290.16;4241060;28;20284;-63
2022/03/29 04:59:19;;;;;;;27.87;14.07;;;;;;;4.43;91.47;99286.69;4199677;28;20365;-63
2022/03/29 05:01:46;;;;;;;28.67;14.70;;;;;;;4.44;91.38;99282.25;4204946;28;20618;-64
2022/03/29 05:04:13;;;;;;;30.07;14.30;;;;;;;4.41;91.77;99274.63;4219184;28;21841;-63
2022/03/29 05:06:40;;;;;;;28.27;12.97;;;;;;;4.42;91.62;99273.63;4222613;28;20872;-61
2022/03/29 05:09:06;;;;;;;29.00;13.83;;;;;;;4.37;92.41;99273.22;4219898;28;20759;-62
2022/03/29 05:11:33;;;;;;;31.17;13.87;;;;;;;4.38;92.69;99280.16;4176607;28;20724;-63
2022/03/29 05:13:59;;;;;;;29.80;13.30;;;;;;;4.50;93.08;99289.63;4195852;28;20315;-62
2022/03/29 05:16:27;;;;;;;27.63;13.03;;;;;;;4.59;92.26;99291.44;4178167;28;20234;-66
2022/03/29 05:18:54;;;;;;;27.00;13.77;;;;;;;4.71;91.21;99291.34;4188778;28;21247;-65
2022/03/29 05:21:21;;;;;;;29.03;13.63;;;;;;;4.62;92.17;99285.91;4211211;28;22840;-62
2022/03/29 05:23:47;;;;;;;27.07;13.87;;;;;;;4.74;91.77;99280.53;4209547;28;25548;-60
2022/03/29 05:26:15;;;;;;;26.47;12.63;;;;;;;4.77;91.66;99277.59;4177933;28;20233;-62
2022/03/29 05:28:41;;;;;;;28.40;14.57;;;;;;;4.80;91.40;99293.13;4211464;28;20234;-63
2022/03/29 05:31:08;;;;;;;25.70;13.20;;;;;;;4.90;91.49;99291.38;4210260;28;22491;-61
2022/03/29 05:33:34;;;;;;;28.17;13.37;;;;;;;4.95;90.75;99291.78;4186093;28;20298;-65
2022/03/29 05:36:02;;;;;;;24.80;13.23;;;;;;;4.86;90.86;99295.22;4198705;28;20236;-62
2022/03/29 05:38:29;;;;;;;29.63;13.70;;;;;;;4.83;91.28;99300.78;4191346;28;20264;-69
2022/03/29 05:40:55;;;;;;;27.83;13.80;;;;;;;4.92;90.42;99292.06;4187949;28;20229;-71
2022/03/29 05:43:22;;;;;;;26.17;13.63;;;;;;;5.04;90.17;99288.31;4193566;28;23756;-62
2022/03/29 05:48:52;;;;;;;31.47;13.83;;;;;;;5.12;89.76;99289.44;4191177;28;20233;-62
2022/03/29 05:48:55;;;;;;;31.60;14.17;;;;;;;5.13;89.39;99293.72;4196199;28;20244;-65
2022/03/29 05:51:24;;;;;;;28.10;13.20;;;;;;;4.92;89.62;99291.25;4180563;28;20340;-64
2022/03/29 05:53:52;;;;;;;28.43;12.80;;;;;;;5.04;89.19;99298.03;4185825;28;20244;-62
2022/03/29 05:56:19;;;;;;;30.70;14.43;;;;;;;5.00;90.17;99297.47;4190238;28;20239;-66
2022/03/29 05:58:46;;;;;;;35.30;14.87;;;;;;;5.03;90.14;99285.81;4200094;28;20512;-64
2022/03/29 06:01:13;;;;;;;28.23;14.63;;;;;;;4.91;90.27;99286.91;4197668;28;20414;-65
2022/03/29 06:03:40;;;;;;;27.53;14.57;;;;;;;5.14;89.55;99292.75;4213507;28;26062;-66
2022/03/29 06:06:06;;;;;;;29.27;14.23;;;;;;;5.21;88.91;99283.31;4189743;28;20299;-65
2022/03/29 06:08:37;;;;;;;32.07;14.63;;;;;;;5.19;88.53;99295.81;4210550;28;20587;-64
2022/03/29 06:11:04;;;;;;;28.60;14.73;;;;;;;5.27;88.69;99298.59;4180098;28;21460;-63
2022/03/29 06:13:31;;;;;;;39.50;16.13;;;;;;;5.18;88.17;99294.16;4192323;28;20654;-64
2022/03/29 06:15:58;;;;;;;29.73;15.77;;;;;;;5.11;88.26;99304.44;4175675;28;20228;-65
2022/03/29 06:18:25;;;;;;;40.43;18.37;;;;;;;5.08;88.38;99300.25;4192915;28;20399;-66
2022/03/29 06:20:52;;;;;;;42.40;20.10;;;;;;;4.98;87.94;99307.31;4187973;28;22786;-64
2022/03/29 06:23:19;;;;;;;38.63;19.13;;;;;;;4.91;88.47;99308.84;4181380;28;20732;-66
2022/03/29 06:25:46;;;;;;;42.67;20.03;;;;;;;4.98;88.14;99317.84;4186495;28;20233;-63
2022/03/29 06:28:14;;;;;;;46.87;22.80;;;;;;;5.11;87.61;99316.78;4190465;28;21834;-64
2022/03/29 06:30:40;;;;;;;51.30;25.20;;;;;;;5.12;86.66;99313.16;4194430;28;22430;-64
2022/03/29 06:33:07;;;;;;;54.53;28.03;;;;;;;5.15;85.97;99303.19;4177784;28;22252;-66
2022/03/29 06:35:35;;;;;;;55.33;28.77;;;;;;;5.24;84.79;99310.28;4186721;28;20228;-66
2022/03/29 06:38:01;;;;;;;52.53;27.23;;;;;;;5.26;84.91;99315.38;4198449;28;20270;-66
2022/03/29 06:40:29;;;;;;;63.93;27.83;;;;;;;5.33;84.86;99318.31;4203459;28;20268;-65
2022/03/29 06:42:57;;;;;;;61.17;29.50;;;;;;;5.28;84.91;99321.38;4204709;28;25553;-66
2022/03/29 06:45:25;;;;;;;58.90;28.80;;;;;;;5.29;84.49;99326.50;4182788;28;20244;-66
2022/03/29 06:47:52;;;;;;;58.70;28.27;;;;;;;5.34;83.77;99326.09;4187468;28;21721;-65
2022/03/29 06:50:18;;;;;;;63.90;29.57;;;;;;;5.35;84.19;99335.66;4194960;28;20307;-65
2022/03/29 06:52:46;;;;;;;58.60;29.20;;;;;;;5.47;83.69;99336.34;4193745;28;20241;-65
2022/03/29 06:55:16;;;;;;;56.33;27.80;;;;;;;5.09;85.42;99332.72;4177312;28;20241;-68
2022/03/29 06:57:43;;;;;;;56.20;26.00;;;;;;;5.16;84.68;99338.28;4208431;28;20236;-67
2022/03/29 07:00:10;;;;;;;50.43;25.17;;;;;;;5.19;84.35;99335.38;4199043;28;21908;-64
2022/03/29 07:02:37;;;;;;;47.27;24.33;;;;;;;5.19;85.18;99333.56;4193806;28;20387;-65
2022/03/29 07:05:04;;;;;;;48.00;23.23;;;;;;;5.30;84.46;99335.25;4176332;28;21018;-64
2022/03/29 07:07:30;;;;;;;48.97;22.90;;;;;;;5.29;84.30;99329.16;4186550;28;20289;-64
2022/03/29 07:12:54;;;;;;;57.30;25.20;;;;;;;5.39;83.81;99329.16;4199585;28;20288;-66
2022/03/29 07:15:22;;;;;;;50.17;23.70;;;;;;;5.50;83.32;99331.66;4184709;28;20225;-68
2022/03/29 07:17:49;;;;;;;51.93;23.27;;;;;;;5.44;83.64;99331.38;4224197;28;20791;-66
2022/03/29 07:20:16;;;;;;;54.80;23.73;;;;;;;5.27;84.54;99331.09;4191994;28;21557;-65
2022/03/29 07:22:45;;;;;;;56.50;25.97;;;;;;;5.41;84.38;99331.66;4199939;28;20243;-64
2022/03/29 07:25:13;;;;;;;48.23;23.33;;;;;;;5.43;83.91;99332.31;4203985;28;20240;-63
2022/03/29 07:27:40;;;;;;;42.87;22.30;;;;;;;5.40;83.45;99343.97;4189869;28;20248;-64
2022/03/29 07:30:08;;;;;;;46.30;22.87;;;;;;;5.43;83.19;99338.44;4208506;28;20327;-62
2022/03/29 07:32:45;;;;;;;47.87;22.77;;;;;;;5.29;83.74;99328.28;4217812;28;22099;-64
2022/03/29 07:35:12;;;;;;;49.87;23.37;;;;;;;5.30;83.84;99324.69;4212478;28;20310;-65
2022/03/29 07:37:40;;;;;;;50.33;23.73;;;;;;;5.35;83.91;99327.75;4201002;28;20311;-66
2022/03/29 07:40:09;;;;;;;50.67;23.80;;;;;;;5.38;83.93;99322.19;4195498;28;20243;-64
2022/03/29 07:42:36;;;;;;;43.23;22.43;;;;;;;5.69;82.92;99322.03;4267562;28;20241;-69
2022/03/29 07:45:05;;;;;;;49.87;23.07;;;;;;;5.71;82.26;99328.00;4272990;28;22866;-64
2022/03/29 07:47:34;;;;;;;39.73;21.53;;;;;;;5.71;82.26;99322.72;4286839;28;20809;-64
2022/03/29 07:50:20;;;;;;;43.37;22.97;;;;;;;6.10;81.09;99317.38;4256817;28;20257;-64
2022/03/29 07:52:57;;;;;;;50.67;23.23;;;;;;;6.26;79.94;99325.53;4262037;28;20249;-65
2022/03/29 07:55:24;;;;;;;49.07;21.80;;;;;;;6.34;79.31;99315.09;4325310;28;20358;-64
2022/03/29 07:58:06;;;;;;;49.90;22.70;;;;;;;6.21;80.33;99317.22;4254596;28;20296;-66
2022/03/29 08:00:33;;;;;;;41.50;22.10;;;;;;;6.18;79.78;99319.28;4296350;28;20245;-63
2022/03/29 08:03:10;;;;;;;45.77;23.17;;;;;;;6.19;79.77;99321.81;4324299;28;20237;-65
2022/03/29 08:05:39;;;;;;;48.60;23.63;;;;;;;6.35;78.32;99323.84;4292458;28;21834;-64
2022/03/29 08:08:06;;;;;;;58.60;25.43;;;;;;;6.34;78.38;99325.66;4288511;28;20232;-63
2022/03/29 08:10:33;;;;;;;53.77;25.63;;;;;;;6.20;79.32;99325.28;4326511;28;22382;-65
2022/03/29 08:13:03;;;;;;;52.20;26.50;;;;;;;6.32;79.56;99318.81;4371553;28;20227;-65
2022/03/29 08:15:30;;;;;;;61.97;27.37;;;;;;;6.48;78.05;99328.78;4233786;28;20249;-63
2022/03/29 08:18:03;;;;;;;53.40;26.57;;;;;;;6.82;77.09;99322.91;4177627;28;20246;-66
2022/03/29 08:20:30;;;;;;;56.83;26.17;;;;;;;7.09;76.06;99320.22;4228686;28;20247;-66
2022/03/29 08:23:00;;;;;;;57.17;29.23;;;;;;;7.06;75.08;99320.50;4216479;28;20288;-63
2022/03/29 08:25:32;;;;;;;64.23;29.90;;;;;;;6.66;77.32;99319.09;4243038;28;20241;-66
2022/03/29 08:28:00;;;;;;;65.97;30.63;;;;;;;6.74;78.49;99316.56;4354514;28;20230;-64
2022/03/29 08:30:31;;;;;;;69.83;32.33;;;;;;;6.62;78.03;99317.72;4359254;28;23331;-65
2022/03/29 08:32:59;;;;;;;63.30;31.30;;;;;;;6.65;77.71;99317.44;4261326;28;21670;-65
2022/03/29 08:35:30;;;;;;;59.93;31.43;;;;;;;6.95;77.12;99324.22;4196762;28;21802;-64
2022/03/29 08:37:57;;;;;;;66.57;32.83;;;;;;;6.84;76.72;99326.25;4223368;28;20350;-65
2022/03/29 08:40:45;;;;;;;69.40;32.37;;;;;;;6.75;77.45;99322.66;4273683;28;25779;-64
2022/03/29 08:43:14;;;;;;;69.17;32.67;;;;;;;6.63;78.03;99316.75;4222336;28;21096;-66
2022/03/29 08:45:46;;;;;;;64.23;32.30;;;;;;;6.55;78.65;99316.63;4269071;28;21509;-66
2022/03/29 08:48:13;;;;;;;61.83;29.17;;;;;;;6.56;78.51;99315.69;4188322;28;22353;-66
2022/03/29 08:50:40;;;;;;;57.87;29.17;;;;;;;6.49;78.92;99306.69;4216191;28;20249;-64
2022/03/29 08:53:11;;;;;;;53.63;26.77;;;;;;;6.53;78.72;99310.66;4195985;28;20241;-66
2022/03/29 08:55:42;;;;;;;60.67;28.60;;;;;;;6.53;79.15;99297.44;4282669;28;20270;-67
2022/03/29 08:58:11;;;;;;;48.07;26.07;;;;;;;7.00;76.92;99304.41;4317753;28;21287;-67
2022/03/29 09:00:37;;;;;;;42.17;22.77;;;;;;;7.79;73.45;99315.00;4223586;28;22386;-63
2022/03/29 09:03:05;;;;;;;44.93;22.23;;;;;;;8.24;71.89;99307.84;4266565;28;20301;-64
2022/03/29 09:05:32;;;;;;;46.67;22.00;;;;;;;8.76;69.49;99302.47;4232477;28;21027;-64
2022/03/29 09:08:03;;;;;;;48.03;23.73;;;;;;;9.04;67.91;99303.03;4195676;28;20245;-67
2022/03/29 09:10:51;;;;;;;47.20;21.57;;;;;;;8.91;68.36;99304.50;4210836;28;20498;-66
2022/03/29 09:13:23;;;;;;;41.93;20.37;;;;;;;9.21;66.58;99308.38;4202035;28;20230;-61
2022/03/29 09:15:51;;;;;;;42.13;20.90;;;;;;;8.84;66.76;99307.78;4228704;28;20992;-64
2022/03/29 09:18:19;;;;;;;41.53;21.67;;;;;;;8.34;68.96;99302.44;4184123;28;20593;-63
2022/03/29 09:20:47;;;;;;;41.77;22.80;;;;;;;7.71;71.88;99303.56;4202756;28;21143;-62
2022/03/29 09:23:18;;;;;;;46.00;23.40;;;;;;;7.47;72.88;99291.78;4189744;28;21557;-63
2022/03/29 09:25:49;;;;;;;37.30;21.97;;;;;;;7.14;74.13;99296.81;4179485;28;20248;-63
2022/03/29 09:28:20;;;;;;;45.53;21.13;;;;;;;7.24;73.69;99295.91;4203274;28;20238;-65
2022/03/29 09:30:49;;;;;;;39.83;21.03;;;;;;;7.08;74.68;99286.81;4206949;28;20246;-64
2022/03/29 09:33:39;;;;;;;43.97;21.20;;;;;;;6.89;76.46;99294.91;4192371;28;20338;-65
2022/03/29 09:36:07;;;;;;;40.23;20.00;;;;;;;7.31;74.51;99283.72;4186468;28;20319;-65
2022/03/29 09:38:40;;;;;;;39.63;19.17;;;;;;;7.46;73.67;99291.94;4213632;28;20237;-65
2022/03/29 09:41:20;;;;;;;43.23;21.53;;;;;;;7.47;73.66;99288.28;4205624;28;20279;-65
2022/03/29 09:44:03;;;;;;;36.90;18.50;;;;;;;7.59;73.13;99282.63;4202693;28;20233;-64
2022/03/29 09:46:31;;;;;;;40.70;20.00;;;;;;;7.34;73.81;99283.41;4210716;28;23258;-62
2022/03/29 09:49:02;;;;;;;37.77;21.10;;;;;;;7.29;73.59;99280.38;4193731;28;23065;-65
2022/03/29 09:51:29;;;;;;;47.23;20.17;;;;;;;7.34;73.18;99281.59;4180482;28;26183;-64
2022/03/29 09:53:58;;;;;;;45.93;21.50;;;;;;;7.46;73.31;99282.16;4196197;28;20625;-68
2022/03/29 09:56:32;;;;;;;41.50;20.63;;;;;;;7.65;71.86;99283.81;4192394;28;20229;-64
2022/03/29 09:59:15;;;;;;;40.10;19.90;;;;;;;7.64;71.42;99287.44;4211940;28;21571;-64
2022/03/29 10:01:53;;;;;;;34.63;19.43;;;;;;;7.65;70.36;99288.28;4211617;28;20311;-64
2022/03/29 10:04:21;;;;;;;34.23;18.13;;;;;;;7.91;68.25;99288.28;4207797;28;25473;-65
2022/03/29 10:06:52;;;;;;;31.63;17.77;;;;;;;8.01;66.77;99286.38;4198944;28;21281;-66
2022/03/29 10:09:27;;;;;;;30.23;17.23;;;;;;;8.20;66.18;99278.19;4193233;28;20264;-66
2022/03/29 10:11:57;;;;;;;34.37;17.53;;;;;;;7.93;66.57;99276.53;4199808;28;20247;-64
2022/03/29 10:14:27;;;;;;;35.07;16.13;;;;;;;8.08;64.36;99278.59;4201740;28;20229;-65
2022/03/29 10:16:56;;;;;;;27.23;15.27;;;;;;;8.28;62.46;99273.91;4191193;28;20232;-64
2022/03/29 10:19:23;;;;;;;30.90;16.00;;;;;;;8.51;63.05;99274.19;4193364;28;21464;-66
2022/03/29 10:21:50;;;;;;;36.47;15.37;;;;;;;8.56;61.49;99271.91;4187780;28;20237;-71
2022/03/29 10:24:18;;;;;;;31.20;14.60;;;;;;;8.45;62.00;99267.69;4198506;28;20303;-64
2022/03/29 10:26:47;;;;;;;33.57;14.37;;;;;;;8.37;61.71;99268.47;4221123;28;20397;-67
2022/03/29 10:29:14;;;;;;;26.93;14.43;;;;;;;8.30;61.46;99271.94;4177992;28;21231;-68
2022/03/29 10:31:55;;;;;;;30.33;15.60;;;;;;;8.17;62.11;99275.88;4199491;28;20235;-64
2022/03/29 10:34:27;;;;;;;28.10;14.30;;;;;;;8.23;61.58;99266.44;4214067;28;20746;-65
2022/03/29 10:37:11;;;;;;;24.63;13.33;;;;;;;8.45;60.41;99276.50;4184825;28;22271;-64
2022/03/29 10:40:00;;;;;;;23.90;13.00;;;;;;;8.58;59.75;99261.97;4210957;28;20280;-64
2022/03/29 10:42:32;;;;;;;23.80;12.77;;;;;;;8.61;59.63;99261.63;4207376;28;21456;-67
2022/03/29 10:45:10;;;;;;;27.57;14.40;;;;;;;8.56;59.79;99263.94;4202683;28;21885;-63
2022/03/29 10:47:53;;;;;;;33.27;13.63;;;;;;;8.53;60.18;99264.28;4218603;28;20701;-65
2022/03/29 10:50:20;;;;;;;26.73;13.97;;;;;;;8.24;60.86;99262.78;4186553;28;20244;-65
2022/03/29 10:52:48;;;;;;;28.27;14.07;;;;;;;8.29;61.23;99257.84;4205586;28;20306;-64
2022/03/29 10:55:27;;;;;;;26.07;12.20;;;;;;;8.19;59.48;99254.47;4202415;28;20253;-64
2022/03/29 10:58:10;;;;;;;24.40;12.63;;;;;;;8.05;60.45;99245.31;4189080;28;20407;-65
2022/03/29 11:00:39;;;;;;;26.13;12.90;;;;;;;8.09;60.70;99246.66;4189938;28;23601;-64
2022/03/29 11:03:22;;;;;;;22.17;12.50;;;;;;;8.28;60.58;99242.09;4210520;28;22186;-64
2022/03/29 11:06:11;;;;;;;30.50;13.30;;;;;;;8.26;60.13;99239.59;4201023;28;20230;-65
2022/03/29 11:08:43;;;;;;;25.03;13.73;;;;;;;8.26;60.80;99236.94;4244269;28;20311;-64
2022/03/29 11:11:43;;;;;;;27.10;13.50;;;;;;;8.31;60.42;99236.47;4187799;28;20507;-64
2022/03/29 11:14:32;;;;;;;26.83;13.40;;;;;;;7.96;61.62;99228.56;4193184;28;20254;-65
2022/03/29 11:17:01;;;;;;;26.57;12.07;;;;;;;7.91;60.50;99241.44;4199897;28;20431;-65
2022/03/29 11:19:44;;;;;;;27.50;11.70;;;;;;;7.68;61.04;99235.00;4203402;28;21670;-68
2022/03/29 11:22:26;;;;;;;27.67;10.63;;;;;;;7.53;61.15;99232.91;4189331;28;20665;-67
2022/03/29 11:24:55;;;;;;;23.00;10.80;;;;;;;7.53;61.72;99232.91;4189797;28;21231;-65
2022/03/29 11:27:23;;;;;;;25.60;11.83;;;;;;;7.52;63.37;99228.63;4188940;28;20246;-62
2022/03/29 11:29:50;;;;;;;31.37;11.77;;;;;;;7.77;62.36;99234.91;4178240;28;23448;-66
2022/03/29 11:32:17;;;;;;;28.60;11.83;;;;;;;7.92;62.14;99221.09;4175924;28;20233;-65
2022/03/29 11:34:45;;;;;;;26.27;12.13;;;;;;;7.89;62.53;99227.53;4181863;28;21815;-64
2022/03/29 11:37:31;;;;;;;31.50;11.60;;;;;;;7.94;61.71;99225.25;4201556;28;20235;-66
2022/03/29 11:40:00;;;;;;;30.03;11.27;;;;;;;7.80;62.50;99215.22;4203208;28;20275;-65